Startpagina
METAR-TAF:

METAR-TAF

Vliegvelden :

Aeropuerto de Gran Canaria

Gran Canaria, Spanje

breedte: 27-56N, lengte: 015-23W, hoogte: 23 m

Actueel weer

Dit bericht is 34 minuten geleden gemaakt, om 18:00 UTC
Wind 23 kt uit het noorden met uitschieters tot 34 kt
Temperatuur 24°C
Vochtigheid 65%
Druk 1016 hPa
Zicht 10 km of meer
Verspreide wolken op 2300 ft

METAR: GCLP 181800Z 01023G34KT 9999 SCT023 24/17 Q1016 NOSIG

Tijdstip: 19:34 (18:34 UTC)

Verwachting

Dit bericht is 4 uur en het 34 minuten geleden gemaakt, om 14:00 UTC
Verwachting geldig van 18 om 15 UTC tot 19 om 15 UTC
Wind 26 kt uit het noordnoordoosten
Zicht 10 km of meer
Weinig wolken op 2500 ft
Tijdelijke
van 18 om 15 UTC tot 18 om 21 UTC
Wind 26 kt uit het noorden met uitschieters tot 36 kt
Kans 40% :
Tijdelijke
van 18 om 21 UTC tot 19 om 07 UTC
Wind 22 kt uit het noorden met uitschieters tot 32 kt

TAF: GCLP 181400Z 1815/1915 02026KT 9999 FEW025 TX27/1914Z TN21/1905Z TEMPO 1815/1821 01026G36KT PROB40 TEMPO 1821/1907 36022G32KT

Waarnemingen en weersverwachtingen van meer dan 4000 vliegvelden (METAR en TAF).

De beschikbare stations zijn de gele en rode punten op de kaart.

Ga met uw muis naar het station om de naam te zien.

Klik dan om waarnemingen en weersverwachtingen te zien.

kaart wijzigen: klik op de groene knoppen met een zwart kruis om in te zoomen, op de groene knop met een streepje om uit te zoomen of op de groene pijlen voor aangrenzende kaarten.


METAR-TAF: